createdAt,value
2022-09-12T00:04:50.372Z,10.90
2022-09-12T00:09:53.449Z,12.10
2022-09-12T00:14:56.536Z,10.80
2022-09-12T00:19:59.770Z,7.40
2022-09-12T00:25:03.935Z,7.10
2022-09-12T00:30:07.947Z,7.80
2022-09-12T00:35:11.735Z,8.60
2022-09-12T00:40:15.364Z,8.10
2022-09-12T00:45:29.059Z,7.70
2022-09-12T00:50:33.731Z,11.30
2022-09-12T00:55:46.451Z,7.50
2022-09-12T01:00:50.132Z,9.10
2022-09-12T01:11:11.463Z,9.90
2022-09-12T01:16:14.695Z,7.60
2022-09-12T01:21:45.384Z,8.50
2022-09-12T01:26:59.975Z,10.10
2022-09-12T01:32:08.943Z,10.80
2022-09-12T01:37:43.503Z,7.40
2022-09-12T01:42:57.088Z,8.60
2022-09-12T01:48:21.921Z,8.10
2022-09-12T01:53:37.030Z,7.20
2022-09-12T01:59:00.063Z,8.00
2022-09-12T02:09:32.276Z,7.10
2022-09-12T02:14:47.176Z,11.20
2022-09-12T02:20:03.438Z,8.00
2022-09-12T02:25:10.682Z,7.90
2022-09-12T02:30:16.757Z,10.10
2022-09-12T02:35:57.527Z,9.60
2022-09-12T02:41:00.610Z,8.20
2022-09-12T02:46:14.268Z,8.90
2022-09-12T02:51:23.418Z,11.50
2022-09-12T02:56:31.390Z,9.20
2022-09-12T03:01:56.739Z,9.80
2022-09-12T03:07:46.870Z,10.00
2022-09-12T03:13:04.972Z,10.10
2022-09-12T03:18:51.724Z,9.50
2022-09-12T03:24:33.253Z,9.40
2022-09-12T03:29:39.588Z,9.90
2022-09-12T03:34:42.568Z,9.30
2022-09-12T03:39:45.825Z,14.50
2022-09-12T03:44:49.133Z,12.70
2022-09-12T03:49:55.139Z,16.70
2022-09-12T03:54:58.379Z,12.20
2022-09-12T04:00:02.265Z,10.40
2022-09-12T04:05:06.337Z,11.10
2022-09-12T04:10:09.897Z,9.90
2022-09-12T04:20:15.951Z,11.00
2022-09-12T04:25:19.185Z,12.00
2022-09-12T04:30:22.313Z,13.00
2022-09-12T04:35:25.902Z,14.40
2022-09-12T04:40:32.226Z,11.50
2022-09-12T04:45:35.501Z,12.00
2022-09-12T04:50:38.903Z,13.70
2022-09-12T04:55:42.077Z,10.40
2022-09-12T05:00:45.214Z,11.40
2022-09-12T05:05:48.109Z,11.60
2022-09-12T05:10:50.982Z,12.40
2022-09-12T05:16:02.989Z,13.70
2022-09-12T05:21:09.574Z,13.30
2022-09-12T05:26:17.165Z,13.00
2022-09-12T05:31:26.528Z,12.00
2022-09-12T05:36:30.994Z,16.10
2022-09-12T05:41:36.114Z,14.20
2022-09-12T05:46:42.775Z,15.80
2022-09-12T05:51:46.178Z,14.20
2022-09-12T05:56:49.651Z,11.60
2022-09-12T06:01:52.546Z,11.60
2022-09-12T06:06:55.454Z,14.90
2022-09-12T06:11:58.902Z,13.70
2022-09-12T06:17:02.318Z,15.80
2022-09-12T06:22:05.214Z,14.10
2022-09-12T06:27:08.104Z,18.20
2022-09-12T06:32:11.815Z,13.70
2022-09-12T06:42:20.031Z,12.50
2022-09-12T06:47:23.655Z,17.00
2022-09-12T06:52:26.657Z,13.90
2022-09-12T06:57:31.603Z,14.70
2022-09-12T07:02:34.467Z,13.50
2022-09-12T07:07:38.240Z,17.00
2022-09-12T07:12:41.134Z,13.60
2022-09-12T07:17:44.529Z,12.90
2022-09-12T07:22:47.382Z,12.70
2022-09-12T07:27:51.290Z,15.10
2022-09-12T07:32:54.890Z,14.60
2022-09-12T07:37:57.761Z,17.80
2022-09-12T07:43:00.591Z,10.30
2022-09-12T07:48:04.383Z,11.50
2022-09-12T07:53:07.282Z,12.70
2022-09-12T07:58:10.112Z,12.40
2022-09-12T08:03:12.948Z,11.50
2022-09-12T08:08:15.822Z,12.60
2022-09-12T08:13:18.694Z,11.10
2022-09-12T08:18:21.518Z,13.30
2022-09-12T08:23:25.248Z,11.20
2022-09-12T08:28:29.085Z,14.00
2022-09-12T08:33:33.832Z,13.50
2022-09-12T08:38:39.458Z,14.50
2022-09-12T08:44:09.067Z,12.20
2022-09-12T08:49:20.498Z,11.20
2022-09-12T08:54:31.252Z,11.00
2022-09-12T08:59:40.040Z,12.90
2022-09-12T09:05:01.564Z,11.20
2022-09-12T09:10:20.338Z,11.10
2022-09-12T09:16:08.041Z,11.30
2022-09-12T09:21:31.157Z,10.00
2022-09-12T09:32:44.003Z,13.60
2022-09-12T09:38:02.051Z,13.30
2022-09-12T09:43:29.156Z,9.80
2022-09-12T09:48:37.034Z,11.20
2022-09-12T09:53:55.821Z,9.00
2022-09-12T09:59:17.884Z,12.10
2022-09-12T10:04:39.248Z,10.80
2022-09-12T10:10:06.262Z,11.10
2022-09-12T10:15:22.989Z,11.30
2022-09-12T10:20:40.613Z,15.40
2022-09-12T10:25:48.809Z,13.10
2022-09-12T10:30:56.381Z,10.90
2022-09-12T10:36:01.097Z,12.20
2022-09-12T10:41:08.568Z,11.60
2022-09-12T10:46:18.003Z,12.80
2022-09-12T10:51:24.111Z,16.60
2022-09-12T10:56:39.282Z,11.30
2022-09-12T11:01:53.385Z,9.50
2022-09-12T11:07:26.193Z,12.60
2022-09-12T11:13:00.846Z,12.40
2022-09-12T11:18:43.550Z,9.50
2022-09-12T11:29:41.271Z,14.40
2022-09-12T11:35:15.121Z,11.80
2022-09-12T11:40:40.686Z,11.80
2022-09-12T11:45:46.263Z,14.80
2022-09-12T11:50:49.232Z,12.70
2022-09-12T11:56:17.140Z,12.50
2022-09-12T12:01:31.594Z,11.40
2022-09-12T12:06:56.280Z,11.70
2022-09-12T12:12:05.496Z,10.40
2022-09-12T12:17:23.007Z,126.00
2022-09-12T12:22:26.382Z,1211.00
2022-09-12T12:28:05.597Z,307.00
2022-09-12T12:33:13.292Z,849.90
2022-09-12T12:38:36.045Z,101.30
2022-09-12T12:43:38.966Z,299.30
2022-09-12T12:49:10.847Z,91.30
2022-09-12T12:54:32.680Z,104.80
2022-09-12T12:59:35.748Z,103.70
2022-09-12T13:04:45.605Z,15.40
2022-09-12T13:09:53.074Z,12.20
2022-09-12T13:15:02.058Z,13.50
2022-09-12T13:20:29.739Z,22.70
2022-09-12T13:25:37.652Z,89.90
2022-09-12T13:31:05.334Z,243.00
2022-09-12T13:36:43.208Z,381.10
2022-09-12T13:42:13.672Z,1734.80
2022-09-12T13:47:33.451Z,34.00
2022-09-12T13:52:39.230Z,90.30
2022-09-12T13:57:42.174Z,21.30
2022-09-12T14:02:47.491Z,16.80
2022-09-12T14:08:00.299Z,13.40
2022-09-12T14:13:22.873Z,14.80
2022-09-12T14:18:33.982Z,19.90
2022-09-12T14:23:45.088Z,22.90
2022-09-12T14:28:48.172Z,10.70
2022-09-12T14:33:57.194Z,57.00
2022-09-12T14:39:06.255Z,20.40
2022-09-12T14:44:25.495Z,573.80
2022-09-12T14:49:28.664Z,151.30
2022-09-12T14:54:31.393Z,128.80
2022-09-12T14:59:41.844Z,825.00
2022-09-12T15:04:55.351Z,1133.30
2022-09-12T15:10:00.948Z,253.40
2022-09-12T15:15:15.881Z,199.60
2022-09-12T15:20:18.768Z,340.20
2022-09-12T15:25:21.625Z,78.00
2022-09-12T15:30:24.540Z,32.40
2022-09-12T15:35:32.764Z,130.80
2022-09-12T15:40:35.758Z,24.00
2022-09-12T15:45:38.615Z,204.90
2022-09-12T15:50:42.389Z,623.00
2022-09-12T15:55:45.807Z,859.40
2022-09-12T16:05:58.624Z,808.20
2022-09-12T16:11:15.362Z,650.70
2022-09-12T16:16:18.251Z,694.40
2022-09-12T16:21:21.225Z,1261.30
2022-09-12T16:26:24.134Z,621.60
2022-09-12T16:31:29.189Z,901.60
2022-09-12T16:36:32.177Z,892.70
2022-09-12T16:41:35.018Z,1505.90
2022-09-12T16:46:38.088Z,775.40
2022-09-12T16:51:44.984Z,1807.40
2022-09-12T16:56:49.597Z,766.90
2022-09-12T17:01:52.634Z,325.40
2022-09-12T17:06:55.643Z,248.50
2022-09-12T17:11:59.008Z,41.80
2022-09-12T17:17:01.981Z,18.60
2022-09-12T17:22:05.078Z,17.20
2022-09-12T17:27:09.666Z,23.10
2022-09-12T17:32:16.846Z,943.50
2022-09-12T17:37:21.918Z,1185.30
2022-09-12T17:42:24.945Z,1721.50
2022-09-12T17:47:28.309Z,1968.90
2022-09-12T17:57:34.641Z,53.40
2022-09-12T18:02:37.603Z,1175.70
2022-09-12T18:07:44.072Z,148.80
2022-09-12T18:12:47.228Z,29.60
2022-09-12T18:17:50.068Z,18.20
2022-09-12T18:22:52.948Z,37.90
2022-09-12T18:27:55.826Z,49.00
2022-09-12T18:33:00.898Z,25.00
2022-09-12T18:38:03.753Z,21.10
2022-09-12T18:43:06.730Z,22.90
2022-09-12T18:48:09.570Z,17.40
2022-09-12T18:53:12.576Z,14.60
2022-09-12T18:58:15.477Z,16.90
2022-09-12T19:03:18.703Z,16.40
2022-09-12T19:08:21.564Z,62.00
2022-09-12T19:13:24.497Z,18.50
2022-09-12T19:18:27.585Z,28.00
2022-09-12T19:23:32.861Z,49.20
2022-09-12T19:28:36.302Z,18.40
2022-09-12T19:38:42.700Z,20.10
2022-09-12T19:43:45.541Z,19.60
2022-09-12T19:48:49.092Z,15.40
2022-09-12T19:58:56.806Z,17.10
2022-09-12T20:03:59.921Z,19.70
2022-09-12T20:09:02.889Z,17.80
2022-09-12T20:14:05.764Z,21.60
2022-09-12T20:19:08.701Z,23.80
2022-09-12T20:24:16.106Z,23.20
2022-09-12T20:29:19.061Z,25.40
2022-09-12T20:34:22.027Z,17.00
2022-09-12T20:39:25.553Z,18.00
2022-09-12T20:44:30.348Z,20.60
2022-09-12T20:49:33.293Z,19.00
2022-09-12T20:54:36.453Z,19.40
2022-09-12T20:59:42.771Z,21.80
2022-09-12T21:04:47.210Z,17.90
2022-09-12T21:09:50.372Z,20.70
2022-09-12T21:14:53.276Z,22.60
2022-09-12T21:19:56.471Z,18.60
2022-09-12T21:30:04.038Z,18.30
2022-09-12T21:35:08.590Z,19.50
2022-09-12T21:40:11.569Z,18.90
2022-09-12T21:45:14.681Z,22.20
2022-09-12T21:50:17.655Z,20.70
2022-09-12T21:55:26.354Z,19.10
2022-09-12T22:00:29.204Z,20.40
2022-09-12T22:05:33.676Z,22.90
2022-09-12T22:10:38.656Z,18.40
2022-09-12T22:15:49.807Z,18.00
2022-09-12T22:21:04.275Z,18.90
2022-09-12T22:26:08.684Z,20.80
2022-09-12T22:31:15.557Z,19.80
2022-09-12T22:36:18.455Z,22.20
2022-09-12T22:41:21.299Z,20.90
2022-09-12T22:46:25.076Z,18.50
2022-09-12T22:51:28.126Z,25.10
2022-09-12T22:56:31.094Z,28.80
2022-09-12T23:01:35.596Z,20.50
2022-09-12T23:06:38.516Z,22.00
2022-09-12T23:11:41.378Z,21.50
2022-09-12T23:16:44.344Z,23.20
2022-09-12T23:21:47.266Z,21.60
2022-09-12T23:26:50.152Z,27.20
2022-09-12T23:31:53.188Z,23.30
2022-09-12T23:36:56.417Z,27.40
2022-09-12T23:41:59.767Z,19.40
2022-09-12T23:47:03.397Z,18.80
2022-09-12T23:52:06.416Z,20.20
2022-09-12T23:57:09.410Z,22.70
